Kodiak, AK

6:31 AM AKDT on September 03, 2015 (GMT -0800)
Baranof | | Change Station
CLOSE
Current Station
Personal Weather Station
Location: Kodiak, AK
Elevation: 85 ft
Nearby Weather Stations

Elev 85 ft 57.80 °N, 152.38 °W | Updated 7 minutes ago

Light Rain
Light Rain
53.6 °F
Feels Like 53.6 °F
N
0.0
Wind Variable Wind from SSW

Today
High -- | Low -- °F
--% Chance of Precip.
Yesterday
High -- | Low -- °F
Precip. -- in
7:14 AM 9:02 PM
Waning Gibbous, 70% visible
Pressure 29.90 in
Visibility 9.0 miles
Clouds Overcast 10000 ft
Dew Point 50 °F
Humidity 88%
Rainfall 0.04 in
Snow Depth Not available.
UV 0 out of 12
Pollen Not available.
Air Quality Not available.
Flu Activity Not available.
METAR PADQ 031353Z 32003KT 9SM -RA OVC100 13/12 A2989 RMK AO2 SLP123 P0002 T01280117
Pressure 29.90 in
Visibility 9.0 miles
Clouds Overcast 10000 ft
Dew Point 50 °F
Humidity 88%
Rainfall 0.04 in
Snow Depth Not available.
UV 0 out of 12
Pollen Not available.
Air Quality Not available.
Flu Activity Not available.
METAR PADQ 031353Z 32003KT 9SM -RA OVC100 13/12 A2989 RMK AO2 SLP123 P0002 T01280117

10-Day Weather Forecast

×

Almanac

Astronomy

Sep. 03, 2015 Rise Set
Actual Time
Civil Twilight
Nautical Twilight
Astronomical Twilight
Moon
Length of Visible Light
Length of Day
Tomorrow will be .
, % of the Moon is Illuminated

Today's Extremes

State Highs State Lows

Community

WunderPhotos

Upload Photos

1,851,960 photos uploaded!

WunderBlogs® & News

Nearby

Air Quality

  Air Quality AQ Index Pollutant
Not available.

Snow Depth

Station Depth Elevation

Earthquake Activity

City Distance Mag. Time & Date
Minimum magnitude displayed is 2.5.

Coastal Water Temperatures

Place Temperature

Stations

Nearby Weather Stations

Station Location Temp. Windchill Dew Point Humidity Wind Precip. Elev Updated Type